Time;durP1;ratioP1;P1;durP2;ratioP2;P2;SDS_P1;SDS_P2;PMS_P1;PMS_P2;Temp;Humidity;BMP_temperature;BMP_pressure;BME280_temperature;BME280_humidity;BME280_pressure;Samples;Min_cycle;Max_cycle;Signal;HPM_P1;HPM_P2
2022/11/09 00:00:08;;;;;;;30.63;17.03;;;7.90;99.90;;;;;;4757246;30;20694;-84
2022/11/09 00:02:36;;;;;;;30.60;16.57;;;7.80;99.90;;;;;;4788302;30;20234;-83
2022/11/09 00:05:09;;;;;;;31.00;17.20;;;7.80;99.90;;;;;;4762261;30;20303;-79
2022/11/09 00:07:36;;;;;;;30.97;17.30;;;7.80;99.90;;;;;;4753741;30;20217;-80
2022/11/09 00:10:04;;;;;;;32.73;17.07;;;7.80;99.90;;;;;;4751984;30;20668;-82
2022/11/09 00:12:31;;;;;;;33.80;17.57;;;7.80;99.90;;;;;;4736598;30;20688;-82
2022/11/09 00:15:00;;;;;;;32.13;17.10;;;7.80;99.90;;;;;;4752294;30;20194;-82
2022/11/09 00:17:27;;;;;;;29.17;15.97;;;7.80;99.90;;;;;;4737074;30;20634;-82
2022/11/09 00:20:00;;;;;;;31.70;16.50;;;7.90;99.90;;;;;;4754175;30;20245;-81
2022/11/09 00:22:27;;;;;;;34.17;16.80;;;7.80;99.90;;;;;;4753935;30;20560;-83
2022/11/09 00:24:54;;;;;;;29.33;16.67;;;7.80;99.90;;;;;;4753989;30;20208;-82
2022/11/09 00:27:22;;;;;;;31.43;17.47;;;7.90;99.90;;;;;;4769976;30;20281;-84
2022/11/09 00:29:49;;;;;;;32.70;16.87;;;7.80;99.90;;;;;;4754018;30;20666;-81
2022/11/09 00:32:17;;;;;;;30.40;16.33;;;7.80;99.90;;;;;;4770049;30;20290;-80
2022/11/09 00:34:44;;;;;;;32.43;17.00;;;7.70;99.90;;;;;;4769948;30;20308;-81
2022/11/09 00:37:11;;;;;;;30.50;16.93;;;7.80;99.90;;;;;;4750856;30;20784;-81
2022/11/09 00:39:38;;;;;;;28.97;16.40;;;7.80;99.90;;;;;;4766485;30;20256;-80
2022/11/09 00:42:06;;;;;;;30.47;17.27;;;7.90;99.90;;;;;;4769725;30;20268;-80
2022/11/09 00:44:33;;;;;;;34.47;17.70;;;7.90;99.90;;;;;;4768411;30;20211;-80
2022/11/09 00:47:00;;;;;;;29.37;16.53;;;7.80;99.90;;;;;;4768618;30;20209;-80
2022/11/09 00:49:27;;;;;;;28.37;16.00;;;7.80;99.90;;;;;;4768527;30;20212;-80
2022/11/09 00:51:54;;;;;;;31.47;17.17;;;7.80;99.90;;;;;;4768662;30;20678;-79
2022/11/09 00:54:21;;;;;;;29.60;16.57;;;7.70;99.90;;;;;;4769176;30;20269;-80
2022/11/09 00:56:48;;;;;;;29.47;17.13;;;7.80;99.90;;;;;;4769818;30;20772;-81
2022/11/09 00:59:15;;;;;;;30.67;16.43;;;7.80;99.90;;;;;;4769775;30;20232;-80
2022/11/09 01:01:42;;;;;;;32.40;16.60;;;7.70;99.90;;;;;;4770064;30;20540;-80
2022/11/09 01:04:09;;;;;;;36.07;18.67;;;7.70;99.90;;;;;;4770314;30;20672;-81
2022/11/09 01:06:37;;;;;;;30.73;16.87;;;7.70;99.90;;;;;;4768234;30;20223;-80
2022/11/09 01:09:04;;;;;;;34.53;18.00;;;7.60;99.90;;;;;;4768663;30;20234;-80
2022/11/09 01:11:31;;;;;;;29.90;16.87;;;7.60;99.90;;;;;;4768445;30;20575;-81
2022/11/09 01:14:01;;;;;;;31.23;17.07;;;7.70;99.90;;;;;;4768230;30;20219;-82
2022/11/09 01:16:28;;;;;;;31.43;17.53;;;7.70;99.90;;;;;;4769592;30;20206;-80
2022/11/09 01:18:56;;;;;;;33.50;18.40;;;7.70;99.90;;;;;;4769085;30;20229;-79
2022/11/09 01:21:24;;;;;;;37.63;17.13;;;7.70;99.90;;;;;;4768270;30;20686;-81
2022/11/09 01:23:51;;;;;;;34.77;17.73;;;7.70;99.90;;;;;;4769711;30;20185;-81
2022/11/09 01:26:18;;;;;;;30.30;17.03;;;7.70;99.90;;;;;;4771240;30;20607;-80
2022/11/09 01:28:45;;;;;;;34.00;17.37;;;7.70;99.90;;;;;;4771801;30;20219;-81
2022/11/09 01:31:14;;;;;;;31.93;17.50;;;7.60;99.90;;;;;;4771505;30;20200;-82
2022/11/09 01:33:42;;;;;;;32.60;17.20;;;7.60;99.90;;;;;;4772238;30;20264;-81
2022/11/09 01:36:22;;;;;;;31.63;17.37;;;7.60;99.90;;;;;;4772327;30;20242;-81
2022/11/09 01:38:50;;;;;;;32.13;16.43;;;7.60;99.90;;;;;;4768725;30;20691;-81
2022/11/09 01:41:24;;;;;;;32.37;16.47;;;7.60;99.90;;;;;;4771954;30;20211;-79
2022/11/09 01:44:11;;;;;;;35.53;17.43;;;7.70;99.90;;;;;;4770976;30;20610;-80
2022/11/09 01:46:44;;;;;;;32.83;17.03;;;7.60;99.90;;;;;;4772062;30;20192;-81
2022/11/09 01:49:36;;;;;;;31.97;17.10;;;7.50;99.90;;;;;;4770812;30;20204;-81
2022/11/09 01:52:44;;;;;;;34.47;17.03;;;7.50;99.90;;;;;;4771028;30;20208;-79
2022/11/09 01:55:15;;;;;;;34.40;17.37;;;7.50;99.90;;;;;;4734204;30;20208;-81
2022/11/09 01:57:51;;;;;;;34.47;18.30;;;7.60;99.90;;;;;;4734811;30;20560;-80
2022/11/09 02:00:19;;;;;;;31.67;16.67;;;7.50;99.90;;;;;;4719835;30;20241;-81
2022/11/09 02:02:55;;;;;;;34.00;17.70;;;7.50;99.90;;;;;;4719852;30;20251;-81
2022/11/09 02:05:26;;;;;;;34.50;18.10;;;7.60;99.90;;;;;;4725873;30;20221;-82
2022/11/09 02:07:55;;;;;;;33.03;17.23;;;7.60;99.90;;;;;;4720053;30;20405;-82
2022/11/09 02:10:30;;;;;;;35.70;18.20;;;7.60;99.90;;;;;;4723165;30;20308;-82
2022/11/09 02:12:58;;;;;;;31.00;17.20;;;7.50;99.90;;;;;;4702319;30;20256;-81
2022/11/09 02:15:26;;;;;;;40.40;18.37;;;7.50;99.90;;;;;;4719192;30;20250;-80
2022/11/09 02:17:55;;;;;;;36.80;17.80;;;7.60;99.90;;;;;;4716823;30;20214;-81
2022/11/09 02:20:24;;;;;;;34.20;18.13;;;7.60;99.90;;;;;;4716895;30;20328;-82
2022/11/09 02:22:51;;;;;;;36.33;17.90;;;7.60;99.90;;;;;;4716723;30;20268;-81
2022/11/09 02:25:18;;;;;;;32.43;17.40;;;7.60;99.90;;;;;;4716649;30;20213;-80
2022/11/09 02:27:46;;;;;;;33.53;18.17;;;7.60;99.90;;;;;;4716908;30;20200;-81
2022/11/09 02:30:14;;;;;;;37.53;18.27;;;7.60;99.90;;;;;;4713562;30;20231;-80
2022/11/09 02:32:41;;;;;;;33.73;17.80;;;7.60;99.90;;;;;;4751737;30;20205;-80
2022/11/09 02:35:09;;;;;;;33.13;18.17;;;7.60;99.90;;;;;;4747579;30;20210;-79
2022/11/09 02:37:46;;;;;;;36.90;18.53;;;7.60;99.90;;;;;;4751911;30;20646;-81
2022/11/09 02:40:27;;;;;;;37.00;17.67;;;7.60;99.90;;;;;;4752330;30;20236;-82
2022/11/09 02:42:57;;;;;;;36.30;18.23;;;7.60;99.90;;;;;;4752332;30;20204;-81
2022/11/09 02:45:24;;;;;;;37.10;19.07;;;7.60;99.90;;;;;;4752065;30;20220;-82
2022/11/09 02:47:51;;;;;;;39.70;18.37;;;7.50;99.90;;;;;;4752567;30;20252;-82
2022/11/09 02:50:19;;;;;;;32.03;17.60;;;7.60;99.90;;;;;;4752580;30;20564;-81
2022/11/09 02:52:46;;;;;;;33.90;18.03;;;7.60;99.90;;;;;;4753499;30;20305;-80
2022/11/09 02:55:16;;;;;;;36.47;17.73;;;7.70;99.90;;;;;;4752267;30;20244;-79
2022/11/09 02:57:44;;;;;;;36.10;18.23;;;7.70;99.90;;;;;;4752058;30;20304;-80
2022/11/09 03:00:12;;;;;;;35.40;17.83;;;7.70;99.90;;;;;;4751921;30;20235;-80
2022/11/09 03:02:40;;;;;;;34.23;17.33;;;7.60;99.90;;;;;;4752078;30;20215;-81
2022/11/09 03:05:07;;;;;;;36.57;17.93;;;7.50;99.90;;;;;;4753089;30;20629;-81
2022/11/09 03:07:34;;;;;;;35.77;18.10;;;7.50;99.90;;;;;;4751734;30;20255;-81
2022/11/09 03:10:01;;;;;;;33.27;18.13;;;7.50;99.90;;;;;;4751232;30;20361;-80
2022/11/09 03:12:29;;;;;;;37.47;19.07;;;7.50;99.90;;;;;;4751648;30;20204;-81
2022/11/09 03:15:02;;;;;;;35.97;17.83;;;7.40;99.90;;;;;;4751614;30;20216;-79
2022/11/09 03:17:31;;;;;;;36.00;17.83;;;7.40;99.90;;;;;;4751756;30;20300;-79
2022/11/09 03:19:58;;;;;;;34.70;18.50;;;7.40;99.90;;;;;;4751757;30;20586;-79
2022/11/09 03:22:26;;;;;;;49.60;19.40;;;7.30;99.90;;;;;;4752737;30;20204;-80
2022/11/09 03:24:53;;;;;;;35.43;18.00;;;7.30;99.90;;;;;;4752626;30;20215;-80
2022/11/09 03:27:20;;;;;;;35.93;18.23;;;7.40;99.90;;;;;;4751266;30;20213;-80
2022/11/09 03:29:48;;;;;;;34.87;17.87;;;7.50;99.90;;;;;;4752210;30;20216;-80
2022/11/09 03:32:16;;;;;;;35.47;17.90;;;7.40;99.90;;;;;;4752988;30;20201;-81
2022/11/09 03:34:43;;;;;;;32.17;17.17;;;7.40;99.90;;;;;;4751412;30;20748;-79
2022/11/09 03:37:10;;;;;;;36.83;18.63;;;7.50;99.90;;;;;;4754019;30;20656;-80
2022/11/09 03:39:37;;;;;;;34.30;18.13;;;7.50;99.90;;;;;;4769256;30;20221;-79
2022/11/09 03:42:05;;;;;;;37.60;18.40;;;7.40;99.90;;;;;;4769294;30;20639;-78
2022/11/09 03:44:32;;;;;;;34.57;17.80;;;7.50;99.90;;;;;;4765318;30;20190;-82
2022/11/09 03:47:00;;;;;;;36.77;19.80;;;7.50;99.90;;;;;;4767023;30;20219;-82
2022/11/09 03:49:27;;;;;;;37.47;18.97;;;7.50;99.90;;;;;;4768687;30;20650;-79
2022/11/09 03:51:54;;;;;;;38.43;18.77;;;7.50;99.90;;;;;;4768778;30;20648;-80
2022/11/09 03:54:30;;;;;;;39.83;18.47;;;7.50;99.90;;;;;;4770389;30;20326;-80
2022/11/09 03:56:57;;;;;;;37.13;18.37;;;7.40;99.90;;;;;;4759845;30;20745;-77
2022/11/09 03:59:24;;;;;;;37.80;19.20;;;7.40;99.90;;;;;;4751002;30;20647;-77
2022/11/09 04:01:51;;;;;;;36.63;18.23;;;7.40;99.90;;;;;;4751135;30;20582;-80
2022/11/09 04:04:19;;;;;;;37.07;18.47;;;7.40;99.90;;;;;;4736383;30;20246;-79
2022/11/09 04:06:46;;;;;;;39.27;19.40;;;7.40;99.90;;;;;;4752045;30;20213;-79
2022/11/09 04:09:13;;;;;;;37.73;18.83;;;7.40;99.90;;;;;;4751135;30;20205;-77
2022/11/09 04:11:40;;;;;;;38.60;18.43;;;7.40;99.90;;;;;;4751193;30;20213;-75
2022/11/09 04:14:07;;;;;;;37.10;18.03;;;7.40;99.90;;;;;;4736289;30;20290;-78
2022/11/09 04:16:35;;;;;;;34.90;17.97;;;7.40;99.90;;;;;;4750908;30;20247;-78
2022/11/09 04:19:03;;;;;;;38.80;18.43;;;7.40;99.90;;;;;;4752183;30;20208;-77
2022/11/09 04:21:32;;;;;;;39.17;19.37;;;7.40;99.90;;;;;;4751252;30;20254;-80
2022/11/09 04:24:23;;;;;;;34.67;18.30;;;7.40;99.90;;;;;;4751038;30;20194;-81
2022/11/09 04:26:53;;;;;;;38.37;18.17;;;7.40;99.90;;;;;;4717895;30;20271;-79
2022/11/09 04:29:24;;;;;;;34.20;17.77;;;7.40;99.90;;;;;;4717917;30;20214;-78
2022/11/09 04:31:54;;;;;;;38.10;18.47;;;7.40;99.90;;;;;;4718385;30;20668;-77
2022/11/09 04:34:24;;;;;;;35.87;18.17;;;7.40;99.90;;;;;;4732566;30;20244;-82
2022/11/09 04:36:57;;;;;;;40.03;18.03;;;7.40;99.90;;;;;;4717821;30;20212;-78
2022/11/09 04:39:25;;;;;;;36.57;18.33;;;7.30;99.90;;;;;;4733734;30;20229;-78
2022/11/09 04:41:56;;;;;;;40.23;18.40;;;7.30;99.90;;;;;;4731893;30;20326;-80
2022/11/09 04:44:26;;;;;;;38.23;18.70;;;7.30;99.90;;;;;;4732058;30;20216;-78
2022/11/09 04:46:54;;;;;;;35.90;18.37;;;7.40;99.90;;;;;;4731833;30;20222;-80
2022/11/09 04:49:21;;;;;;;37.00;17.77;;;7.40;99.90;;;;;;4732120;30;20213;-79
2022/11/09 04:51:48;;;;;;;34.30;17.83;;;7.30;99.90;;;;;;4732450;30;20251;-80
2022/11/09 04:54:19;;;;;;;41.23;19.90;;;7.30;99.90;;;;;;4732341;30;20289;-78
2022/11/09 04:56:48;;;;;;;37.80;18.03;;;7.20;99.90;;;;;;4731902;30;20206;-80
2022/11/09 04:59:16;;;;;;;41.53;19.63;;;7.20;99.90;;;;;;4733200;30;20211;-80
2022/11/09 05:01:43;;;;;;;37.73;18.63;;;7.20;99.90;;;;;;4735472;30;20209;-80
2022/11/09 05:04:13;;;;;;;38.50;18.73;;;7.10;99.90;;;;;;4729162;30;20358;-78
2022/11/09 05:06:40;;;;;;;36.70;18.20;;;7.10;99.90;;;;;;4735928;30;20217;-81
2022/11/09 05:09:08;;;;;;;41.37;19.20;;;7.10;99.90;;;;;;4736481;30;20267;-80
2022/11/09 05:11:38;;;;;;;41.13;19.63;;;7.10;99.90;;;;;;4737460;30;20205;-80
2022/11/09 05:14:08;;;;;;;39.13;19.47;;;7.10;99.90;;;;;;4737609;30;20198;-80
2022/11/09 05:16:36;;;;;;;38.27;19.27;;;7.00;99.90;;;;;;4737681;30;20206;-80
2022/11/09 05:19:03;;;;;;;36.97;18.87;;;7.00;99.90;;;;;;4736246;30;20749;-80
2022/11/09 05:21:31;;;;;;;41.07;19.87;;;7.00;99.90;;;;;;4737177;30;20226;-80
2022/11/09 05:23:58;;;;;;;40.97;19.07;;;7.00;99.90;;;;;;4736077;30;20639;-81
2022/11/09 05:26:32;;;;;;;41.37;19.13;;;7.00;99.90;;;;;;4751200;30;20649;-80
2022/11/09 05:29:02;;;;;;;38.83;18.63;;;7.00;99.90;;;;;;4753785;30;20201;-81
2022/11/09 05:31:30;;;;;;;39.53;19.67;;;7.00;99.90;;;;;;4753450;30;20232;-78
2022/11/09 05:33:58;;;;;;;43.13;19.70;;;7.00;99.90;;;;;;4752922;30;20220;-81
2022/11/09 05:36:32;;;;;;;37.33;19.77;;;7.00;99.90;;;;;;4752777;30;20209;-82
2022/11/09 05:39:02;;;;;;;41.57;19.73;;;7.00;99.90;;;;;;4769720;30;20233;-81
2022/11/09 05:42:46;;;;;;;39.50;19.10;;;7.00;99.90;;;;;;4906657;24;20242;-82
2022/11/09 05:45:33;;;;;;;44.53;20.47;;;7.00;99.90;;;;;;4753328;30;20684;-82
2022/11/09 05:48:26;;;;;;;52.90;20.90;;;7.10;99.90;;;;;;4734695;30;20322;-81
2022/11/09 05:50:57;;;;;;;40.20;20.00;;;6.90;99.90;;;;;;4748493;24;20739;-81
2022/11/09 05:53:24;;;;;;;41.00;19.67;;;7.00;99.90;;;;;;4807901;29;20203;-81
2022/11/09 05:55:51;;;;;;;38.33;19.73;;;7.00;99.90;;;;;;4807838;29;20714;-81
2022/11/09 05:58:24;;;;;;;40.17;19.83;;;7.00;99.90;;;;;;4791437;29;20313;-81
2022/11/09 06:00:58;;;;;;;45.00;20.07;;;7.00;99.90;;;;;;4791414;29;20238;-81
2022/11/09 06:03:33;;;;;;;42.67;19.97;;;7.00;99.90;;;;;;4791302;29;20726;-82
2022/11/09 06:06:28;;;;;;;42.03;20.77;;;7.00;99.90;;;;;;4788041;29;20307;-80
2022/11/09 06:09:00;;;;;;;40.63;19.80;;;7.00;99.90;;;;;;4773341;30;20250;-81
2022/11/09 06:11:50;;;;;;;42.73;19.30;;;7.00;99.90;;;;;;4839107;24;20229;-82
2022/11/09 06:14:17;;;;;;;47.60;21.53;;;7.00;99.90;;;;;;4776401;29;20208;-81
2022/11/09 06:16:44;;;;;;;46.07;20.87;;;7.00;99.90;;;;;;4791682;29;20311;-81
2022/11/09 06:19:11;;;;;;;45.07;21.40;;;7.00;99.90;;;;;;4791188;29;20566;-82
2022/11/09 06:21:38;;;;;;;41.07;20.30;;;7.10;99.90;;;;;;4806636;29;20681;-81
2022/11/09 06:24:06;;;;;;;45.57;21.50;;;7.10;99.90;;;;;;4806492;29;20199;-82
2022/11/09 06:26:33;;;;;;;43.00;20.53;;;7.10;99.90;;;;;;4806935;29;20283;-81
2022/11/09 06:29:00;;;;;;;41.97;21.03;;;7.10;99.90;;;;;;4790706;29;20215;-81
2022/11/09 06:31:27;;;;;;;46.00;21.17;;;7.20;99.90;;;;;;4807133;29;20207;-81
2022/11/09 06:33:58;;;;;;;46.30;21.37;;;7.20;99.90;;;;;;4797139;24;20266;-81
2022/11/09 06:36:25;;;;;;;45.30;21.23;;;7.30;99.90;;;;;;4790943;29;20283;-81
2022/11/09 06:38:52;;;;;;;44.00;20.47;;;7.30;99.90;;;;;;4775936;29;20214;-81
2022/11/09 06:41:26;;;;;;;42.17;20.80;;;7.30;99.90;;;;;;4806801;29;20320;-82
2022/11/09 06:43:54;;;;;;;40.17;20.00;;;7.40;99.90;;;;;;4806639;29;20246;-82
2022/11/09 06:53:22;;;;;;;40.83;21.03;;;7.40;99.90;;;;;;4770779;30;20219;-84
2022/11/09 06:56:14;;;;;;;45.33;19.87;;;7.40;99.90;;;;;;4791908;29;20678;-86
2022/11/09 07:05:57;;;;;;;43.40;20.27;;;7.60;99.90;;;;;;916633;24;20517;-83
2022/11/09 07:12:49;;;;;;;41.43;19.83;;;7.80;99.90;;;;;;4698216;30;20207;-81
2022/11/09 07:19:44;;;;;;;42.40;19.63;;;8.00;99.90;;;;;;4684363;30;20192;-86
2022/11/09 07:32:15;;;;;;;48.37;20.73;;;8.50;99.90;;;;;;5220913;24;20233;-83
2022/11/09 07:34:42;;;;;;;43.13;19.97;;;8.60;99.90;;;;;;4825026;29;20293;-83
2022/11/09 07:37:10;;;;;;;41.30;19.57;;;8.80;99.90;;;;;;4808522;29;20198;-82
2022/11/09 07:39:40;;;;;;;39.30;19.20;;;8.80;99.90;;;;;;4823045;29;20217;-81
2022/11/09 07:42:07;;;;;;;47.10;20.37;;;8.70;99.90;;;;;;4823285;29;20272;-81
2022/11/09 07:44:34;;;;;;;44.03;19.97;;;8.80;99.90;;;;;;4824189;29;20219;-85
2022/11/09 07:47:02;;;;;;;44.10;20.00;;;8.90;99.90;;;;;;4807785;29;20207;-83
2022/11/09 07:49:29;;;;;;;45.07;20.27;;;9.10;99.90;;;;;;4823018;29;20199;-82
2022/11/09 07:51:56;;;;;;;44.50;20.00;;;9.20;99.90;;;;;;4808365;29;20199;-85
2022/11/09 07:54:24;;;;;;;41.47;19.13;;;9.20;99.90;;;;;;4823952;29;20259;-84
2022/11/09 07:56:55;;;;;;;39.07;19.23;;;9.30;99.90;;;;;;4822583;29;20211;-84
2022/11/09 08:06:18;;;;;;;38.07;18.60;;;9.40;99.90;;;;;;4883466;24;20325;-85
2022/11/09 08:08:45;;;;;;;40.87;19.67;;;9.50;99.90;;;;;;4771818;30;20228;-82
2022/11/09 08:13:46;;;;;;;41.92;20.17;;;9.60;99.90;;;;;;4822616;29;20463;-82
2022/11/09 08:16:53;;;;;;;40.63;18.43;;;9.70;99.90;;;;;;4807323;29;20213;-81
2022/11/09 08:19:28;;;;;;;40.55;21.05;;;9.70;99.90;;;;;;4822521;29;20455;-77
2022/11/09 08:21:56;;;;;;;41.10;20.03;;;9.70;99.90;;;;;;4823501;29;20863;-78
2022/11/09 08:24:23;;;;;;;36.63;18.93;;;9.80;99.90;;;;;;4823006;29;20199;-83
2022/11/09 08:26:50;;;;;;;38.60;19.27;;;9.90;99.90;;;;;;4807368;29;20211;-82
2022/11/09 08:29:18;;;;;;;42.07;20.07;;;9.90;99.90;;;;;;4807709;29;20202;-80
2022/11/09 08:31:45;;;;;;;43.30;22.13;;;10.10;99.90;;;;;;4824079;29;20452;-78
2022/11/09 08:34:13;;;;;;;41.63;20.33;;;10.10;99.90;;;;;;4823744;29;20318;-80
2022/11/09 08:36:43;;;;;;;39.33;19.03;;;10.00;99.90;;;;;;4827118;29;20251;-84
2022/11/09 08:39:15;;;;;;;40.00;19.57;;;9.90;99.90;;;;;;4812535;29;20822;-91
2022/11/09 10:04:59;;;;;;;35.07;18.47;;;11.90;99.90;;;;;;4933441;23;20270;-84
2022/11/09 10:07:49;;;;;;;31.53;17.43;;;12.00;99.90;;;;;;4773354;30;20611;-84
2022/11/09 10:19:07;;;;;;;33.13;17.60;;;12.00;99.90;;;;;;4834621;24;20257;-85
2022/11/09 10:22:16;;;;;;;34.60;17.67;;;12.00;99.90;;;;;;4796777;29;20278;-77
2022/11/09 10:33:14;;;;;;;33.27;16.97;;;12.30;99.90;;;;;;4115623;24;20243;-82
2022/11/09 10:36:39;;;;;;;33.67;17.40;;;12.30;99.90;;;;;;4769917;29;20215;-77
2022/11/09 10:39:11;;;;;;;34.73;17.57;;;12.20;99.90;;;;;;4807863;29;20306;-82
2022/11/09 10:41:39;;;;;;;32.50;17.47;;;12.30;99.90;;;;;;4809252;29;20265;-81
2022/11/09 10:47:11;;;;;;;31.37;17.40;;;12.40;99.90;;;;;;4904160;23;20246;-82
2022/11/09 10:49:39;;;;;;;33.73;17.60;;;12.50;99.90;;;;;;4808255;29;20206;-78
2022/11/09 10:52:31;;;;;;;33.60;17.90;;;12.50;99.90;;;;;;4824160;29;20199;-79
2022/11/09 10:55:26;;;;;;;32.20;17.60;;;12.70;99.90;;;;;;4808041;29;20195;-75
2022/11/09 10:57:58;;;;;;;31.90;16.77;;;13.00;99.90;;;;;;4807580;29;20301;-81
2022/11/09 11:00:37;;;;;;;32.67;16.87;;;13.10;99.90;;;;;;4807843;29;20203;-85
2022/11/09 11:03:24;;;;;;;34.07;17.53;;;13.30;99.90;;;;;;4808016;29;20633;-80
2022/11/09 11:09:32;;;;;;;31.93;17.20;;;13.50;99.90;;;;;;4790481;29;20432;-84
2022/11/09 11:12:43;;;;;;;32.97;17.80;;;13.50;99.90;;;;;;4786916;29;20253;-84
2022/11/09 11:15:36;;;;;;;30.33;16.83;;;13.30;99.90;;;;;;4790256;29;20207;-83
2022/11/09 11:18:54;;;;;;;30.97;16.67;;;13.20;99.90;;;;;;4790681;29;20615;-81
2022/11/09 11:22:17;;;;;;;30.33;16.43;;;12.90;99.90;;;;;;4746056;29;20318;-81
2022/11/09 11:36:56;;;;;;;29.80;16.13;;;14.60;99.90;;;;;;4764692;27;20239;-78
2022/11/09 11:42:24;;;;;;;30.77;16.37;;;14.50;99.90;;;;;;5302806;24;20748;-82
2022/11/09 11:45:56;;;;;;;33.97;16.77;;;14.50;99.90;;;;;;4829347;24;20275;-86
2022/11/09 11:49:02;;;;;;;30.93;16.10;;;14.60;99.90;;;;;;4771519;30;20565;-84
2022/11/09 11:52:15;;;;;;;30.53;16.43;;;14.20;99.90;;;;;;4823310;24;20601;-80
2022/11/09 11:55:04;;;;;;;30.13;16.10;;;14.30;99.90;;;;;;4788297;29;20200;-84
2022/11/09 11:58:02;;;;;;;30.83;16.23;;;14.50;99.90;;;;;;4786894;30;20208;-83
2022/11/09 12:00:42;;;;;;;28.10;15.83;;;14.60;99.90;;;;;;4788213;29;20204;-84
2022/11/09 12:03:52;;;;;;;29.67;16.13;;;14.80;99.90;;;;;;4772320;30;20269;-86
2022/11/09 12:06:43;;;;;;;27.90;15.53;;;15.10;99.90;;;;;;4787909;29;20211;-82
2022/11/09 12:09:21;;;;;;;28.33;15.67;;;15.50;99.90;;;;;;4768957;30;20294;-84
2022/11/09 12:12:12;;;;;;;27.80;14.77;;;15.60;99.90;;;;;;4754120;30;20311;-85
2022/11/09 12:14:47;;;;;;;26.37;15.50;;;16.00;99.90;;;;;;4768702;30;20208;-85
2022/11/09 12:17:43;;;;;;;29.23;15.67;;;16.00;99.90;;;;;;4768775;30;20215;-85
2022/11/09 12:21:02;;;;;;;28.80;15.53;;;15.60;99.90;;;;;;4788376;24;20291;-82
2022/11/09 12:23:59;;;;;;;26.90;15.37;;;15.80;99.90;;;;;;4823174;29;20199;-85
2022/11/09 12:26:39;;;;;;;29.23;15.03;;;15.50;99.90;;;;;;4802365;29;20213;-80
2022/11/09 12:29:16;;;;;;;29.10;16.20;;;15.60;99.90;;;;;;4822877;29;20210;-88
2022/11/09 12:32:19;;;;;;;32.37;16.50;;;15.20;99.90;;;;;;4823008;29;20207;-80
2022/11/09 12:35:20;;;;;;;26.40;15.50;;;14.80;99.90;;;;;;4821056;29;20207;-78
2022/11/09 12:38:00;;;;;;;28.03;15.20;;;15.00;99.90;;;;;;4803736;29;20216;-80
2022/11/09 12:41:26;;;;;;;;;;;;;;;;;;;;;
2022/11/09 12:44:54;;;;;;;26.63;15.37;;;15.10;99.90;;;;;;4739079;30;20674;-87
2022/11/09 12:47:38;;;;;;;27.40;15.33;;;14.90;99.90;;;;;;4717807;30;20218;-80
2022/11/09 12:50:10;;;;;;;27.20;14.93;;;15.20;99.90;;;;;;4717589;30;20221;-81
2022/11/09 12:52:41;;;;;;;27.83;15.80;;;14.90;99.90;;;;;;4717529;30;20293;-79
2022/11/09 12:55:17;;;;;;;29.33;15.97;;;14.80;99.90;;;;;;4717618;30;20671;-80
2022/11/09 12:57:57;;;;;;;28.02;17.42;;;15.00;99.90;;;;;;4731148;30;20456;-80
2022/11/09 13:00:32;;;;;;;30.50;16.30;;;14.90;99.90;;;;;;4731977;30;20256;-80
2022/11/09 13:03:05;;;;;;;29.63;17.50;;;14.70;99.90;;;;;;4701831;30;20844;-79
2022/11/09 13:05:36;;;;;;;28.20;15.93;;;14.60;99.90;;;;;;4731906;30;20214;-82
2022/11/09 13:08:17;;;;;;;31.83;16.23;;;14.50;99.90;;;;;;4717259;30;20295;-81
2022/11/09 13:10:44;;;;;;;32.10;16.03;;;14.70;99.90;;;;;;4731923;30;20203;-84
2022/11/09 13:13:12;;;;;;;28.07;15.77;;;14.70;99.90;;;;;;4734134;30;20222;-79
2022/11/09 13:16:22;;;;;;;32.00;15.73;;;14.50;99.90;;;;;;4752298;30;20210;-81
2022/11/09 13:18:51;;;;;;;24.70;15.13;;;14.40;99.90;;;;;;4759522;30;20565;-78
2022/11/09 13:21:21;;;;;;;28.80;16.07;;;14.30;99.90;;;;;;4781333;30;20606;-81
2022/11/09 13:23:52;;;;;;;28.47;15.53;;;14.10;99.90;;;;;;4788459;29;20769;-77
2022/11/09 13:26:32;;;;;;;31.53;16.20;;;13.80;99.90;;;;;;4773393;30;20208;-78
2022/11/09 13:29:14;;;;;;;34.57;17.20;;;13.90;99.90;;;;;;4773363;30;20221;-81
2022/11/09 13:32:00;;;;;;;28.87;15.87;;;13.60;99.90;;;;;;4773068;30;20210;-80
2022/11/09 13:34:53;;;;;;;37.23;16.37;;;13.50;99.90;;;;;;4787807;29;20215;-81
2022/11/09 13:37:42;;;;;;;34.80;17.88;;;13.40;99.90;;;;;;4769668;30;20482;-83
2022/11/09 13:40:30;;;;;;;31.15;17.70;;;13.40;99.90;;;;;;4769447;30;20514;-84
2022/11/09 13:43:04;;;;;;;31.23;18.30;;;13.40;99.90;;;;;;4754406;30;20475;-80
2022/11/09 13:45:34;;;;;;;30.07;16.73;;;13.30;99.90;;;;;;4770118;30;20570;-79
2022/11/09 13:48:05;;;;;;;28.33;15.90;;;13.30;99.90;;;;;;4755185;30;20205;-81
2022/11/09 13:50:34;;;;;;;26.43;15.20;;;13.30;99.90;;;;;;4755433;30;20210;-81
2022/11/09 13:53:02;;;;;;;33.57;16.43;;;13.30;99.90;;;;;;4766223;30;20213;-80
2022/11/09 13:55:42;;;;;;;30.63;16.25;;;13.30;99.90;;;;;;4787531;30;20443;-82
2022/11/09 13:58:33;;;;;;;33.47;16.57;;;13.10;99.90;;;;;;4773442;30;20215;-82
2022/11/09 14:01:00;;;;;;;33.33;16.00;;;13.10;99.90;;;;;;4787602;29;20279;-83
2022/11/09 14:03:28;;;;;;;29.63;15.77;;;13.00;99.90;;;;;;4787921;29;20209;-80
2022/11/09 14:06:01;;;;;;;30.70;16.13;;;12.90;99.90;;;;;;4788437;30;20287;-81
2022/11/09 14:08:33;;;;;;;29.53;15.80;;;12.90;99.90;;;;;;4787904;30;20247;-81
2022/11/09 14:11:47;;;;;;;33.45;17.90;;;13.00;99.90;;;;;;4787785;29;20455;-83
2022/11/09 14:14:23;;;;;;;38.17;17.43;;;13.00;99.90;;;;;;4753758;30;20269;-80
2022/11/09 14:17:12;;;;;;;31.97;16.60;;;13.00;99.90;;;;;;4772821;30;20677;-79
2022/11/09 14:19:56;;;;;;;31.93;16.27;;;12.90;99.90;;;;;;4772302;30;20564;-78
2022/11/09 14:22:23;;;;;;;36.42;18.75;;;12.80;99.90;;;;;;4771997;30;20463;-77
2022/11/09 14:24:50;;;;;;;34.57;17.30;;;12.80;99.90;;;;;;4772575;30;20223;-79
2022/11/09 14:27:20;;;;;;;33.70;18.30;;;12.80;99.90;;;;;;4771591;30;20457;-78
2022/11/09 14:29:54;;;;;;;30.70;16.30;;;12.80;99.90;;;;;;4772516;30;20216;-77
2022/11/09 14:32:23;;;;;;;29.93;16.40;;;12.70;99.90;;;;;;4771783;30;20266;-79
2022/11/09 14:34:50;;;;;;;32.80;17.23;;;12.70;99.90;;;;;;4772125;30;20563;-79
2022/11/09 14:37:18;;;;;;;30.13;16.38;;;12.70;99.90;;;;;;4772304;30;20385;-79
2022/11/09 14:39:51;;;;;;;29.53;16.10;;;12.70;99.90;;;;;;4787353;29;20658;-79
2022/11/09 14:42:22;;;;;;;33.30;16.53;;;12.60;99.90;;;;;;4772073;30;20228;-80
2022/11/09 14:44:50;;;;;;;29.63;15.67;;;12.60;99.90;;;;;;4787049;29;20212;-80
2022/11/09 14:47:24;;;;;;;30.90;15.77;;;12.50;99.90;;;;;;4772144;30;20201;-80
2022/11/09 14:49:51;;;;;;;32.10;16.20;;;12.50;99.90;;;;;;4777355;29;20202;-81
2022/11/09 14:52:25;;;;;;;30.40;16.10;;;12.50;99.90;;;;;;4825771;29;20573;-78
2022/11/09 14:54:53;;;;;;;30.57;17.20;;;12.40;99.90;;;;;;4823944;29;20228;-79
2022/11/09 14:57:22;;;;;;;30.67;16.00;;;12.40;99.90;;;;;;4823982;29;20207;-79
2022/11/09 14:59:49;;;;;;;29.47;16.27;;;12.30;99.90;;;;;;4823845;29;20203;-80
2022/11/09 15:02:19;;;;;;;29.60;16.13;;;12.30;99.90;;;;;;4824131;29;20271;-77
2022/11/09 15:05:01;;;;;;;31.20;16.43;;;12.30;99.90;;;;;;4824868;29;20209;-75
2022/11/09 15:07:34;;;;;;;33.77;16.00;;;12.30;99.90;;;;;;4808702;29;20215;-79
2022/11/09 15:10:18;;;;;;;33.97;17.07;;;12.20;99.90;;;;;;4823633;29;20582;-78
2022/11/09 15:12:53;;;;;;;31.47;16.73;;;12.20;99.90;;;;;;4824927;29;20199;-80
2022/11/09 15:15:24;;;;;;;31.80;16.73;;;12.10;99.90;;;;;;4823489;29;20220;-80
2022/11/09 15:17:51;;;;;;;41.13;17.77;;;12.10;99.90;;;;;;4823542;29;20205;-78
2022/11/09 15:20:18;;;;;;;30.57;16.03;;;12.10;99.90;;;;;;4823504;29;20322;-77
2022/11/09 15:22:56;;;;;;;31.20;16.33;;;12.10;99.90;;;;;;4824699;29;20227;-78
2022/11/09 15:25:28;;;;;;;37.53;17.60;;;12.00;99.90;;;;;;4823548;29;20203;-76
2022/11/09 15:28:10;;;;;;;33.03;17.20;;;11.90;99.90;;;;;;4823298;29;20650;-78
2022/11/09 15:30:51;;;;;;;29.10;16.30;;;11.90;99.90;;;;;;4823559;29;20210;-78
2022/11/09 15:33:23;;;;;;;30.70;16.50;;;11.80;99.90;;;;;;4824867;29;20613;-78
2022/11/09 15:35:57;;;;;;;33.47;17.87;;;11.80;99.90;;;;;;4824433;29;20321;-80
2022/11/09 15:38:33;;;;;;;34.83;17.00;;;11.80;99.90;;;;;;4823033;29;20210;-79
2022/11/09 15:41:01;;;;;;;32.60;17.23;;;11.80;99.90;;;;;;4823500;29;20218;-77
2022/11/09 15:43:28;;;;;;;33.73;17.33;;;11.80;99.90;;;;;;4822765;29;20303;-82
2022/11/09 15:45:58;;;;;;;67.73;20.53;;;11.80;99.90;;;;;;4823458;29;20621;-82
2022/11/09 15:48:25;;;;;;;37.33;18.07;;;11.80;99.90;;;;;;4824652;29;20283;-82
2022/11/09 15:50:53;;;;;;;36.93;17.60;;;11.70;99.90;;;;;;4824679;29;20206;-81
2022/11/09 15:53:20;;;;;;;33.10;17.07;;;11.70;99.90;;;;;;4823856;29;20206;-78